Flight Track Log - Related Links

Times and Time Zones

All times are in EST time to prevent confusion due to time zone crossing. See the SKW6436 flight status page for this flight to view local times or setup timezone preferences in your user account.


Time Position Orientation Groundspeed Altitude Reporting Facility
EST Latitude Longitude Course Direction KTS MPH feet Rate Location/Type
Thu 10:15:44 PM 32.7667 -117.2500 320° Northwest 182 209 2,500  Level Southern California TRACON
Thu 10:16:45 PM 32.8000 -117.3000 308° West 185 213 4,400 1,686 Climbing Southern California TRACON
Thu 10:17:45 PM 32.8167 -117.3500 292° West 183 211 5,900 1,650 Climbing Southern California TRACON
Thu 10:18:00 PM 32.9272 -117.3772 320° Northwest  Level FlightAware Approximate
Thu 10:18:45 PM 32.8500 -117.4000 308° West 183 211 7,700  Level Southern California TRACON
Thu 10:19:00 PM 32.9760 -117.4258 320° Northwest  Level FlightAware Approximate
Thu 10:19:45 PM 32.9000 -117.4500 320° Northwest 210 242 8,000  Level Southern California TRACON
Thu 10:20:00 PM 33.0248 -117.4745 320° Northwest  Level FlightAware Approximate
Thu 10:20:45 PM 32.9333 -117.5000 308° West 223 257 8,000  Level Southern California TRACON
Thu 10:21:00 PM 33.0690 -117.5188 320° Northwest  Level FlightAware Approximate
Thu 10:21:45 PM 32.9833 -117.5500 320° Northwest 221 254 8,000  Level Southern California TRACON
Thu 10:22:16 PM 32.9886 -117.5744 284° West 222 255 8,000  Level Los Angeles Center
Thu 10:23:18 PM 33.0278 -117.6292 310° West 221 254 8,000  Level Los Angeles Center
Thu 10:24:19 PM 33.0758 -117.6936 312° West 217 250 8,000  Level Los Angeles Center
Thu 10:25:21 PM 33.1158 -117.7478 311° West 218 251 8,000  Level Los Angeles Center
Thu 10:26:22 PM 33.1561 -117.8031 311° West 221 254 8,000  Level Los Angeles Center
Thu 10:27:24 PM 33.2069 -117.8456 325° Northwest 227 261 8,000  Level Los Angeles Center
Thu 10:28:26 PM 33.2697 -117.8672 344° North 235 270 8,000  Level Los Angeles Center
Thu 10:29:27 PM 33.3183 -117.9072 325° Northwest 222 255 8,000  Level Los Angeles Center
Thu 10:30:29 PM 33.3564 -117.9531 315° West 212 244 8,000  Level Los Angeles Center
Thu 10:31:32 PM 33.4269 -117.9708 348° North 217 250 8,000  Level Los Angeles Center
Thu 10:32:32 PM 33.4878 -117.9875 347° North 221 254 8,000  Level Los Angeles Center
Thu 10:33:34 PM 33.5511 -118.0008 350° North 228 262 8,000 -195 Level Los Angeles Center
Thu 10:34:35 PM 33.6150 -118.0147 350° North 233 268 7,600 -439 Descending Los Angeles Center
Thu 10:35:37 PM 33.6683 -118.0275 349° North 207 238 7,100 -293 Descending Los Angeles Center
Thu 10:36:38 PM 33.7183 -118.0397 349° North 189 217 7,000 -49 Descending Los Angeles Center
Thu 10:37:40 PM 33.7789 -118.0542 349° North 186 214 7,000 -609 Level Los Angeles Center
Thu 10:38:46 PM 33.8333 -118.0500 North 219 252 5,700 -1,136 Descending Southern California TRACON
Thu 10:39:52 PM 33.9000 -118.0333 12° North 187 215 4,500 -1,190 Descending Southern California TRACON
Thu 10:40:52 PM 33.9500 -118.0500 345° North 187 215 3,200 -991 Descending Southern California TRACON
Thu 10:41:47 PM 33.9667 -118.1000 292° West 185 213 2,600 -313 Descending Southern California TRACON
Thu 10:42:47 PM 33.9667 -118.1667 270° West 168 193 2,600  Level Southern California TRACON
Thu 10:43:46 PM 33.9500 -118.2167 248° West 162 186 2,600 -250 Level Southern California TRACON
Thu 10:44:47 PM 33.9500 -118.2667 270° West 155 178 2,100 -595 Descending Southern California TRACON
Thu 10:45:47 PM 33.9500 -118.3167 270° West 137 158 1,400 -714 Descending Southern California TRACON
Thu 10:46:53 PM 33.9333 -118.3667 248° West 119 137 600 -511 Descending Southern California TRACON
Thu 10:48:08 PM 33.9367 -118.4017 277° West 128 147 200 -320 Descending Los Angeles Center

Login

Don't have an account? Register now (free) for customized features, flight alerts, and more!